createdAt,value
2022-10-29T00:00:08.265Z,101383.53
2022-10-29T00:05:11.433Z,101401.72
2022-10-29T00:10:14.199Z,101391.66
2022-10-29T00:15:16.962Z,101405.97
2022-10-29T00:20:22.127Z,101403.81
2022-10-29T00:25:27.780Z,101397.22
2022-10-29T00:30:30.567Z,101401.31
2022-10-29T00:35:33.212Z,101413.09
2022-10-29T00:40:38.985Z,101415.44
2022-10-29T00:46:05.766Z,101405.13
2022-10-29T00:51:10.444Z,101381.66
2022-10-29T00:56:13.579Z,101418.53
2022-10-29T01:01:16.684Z,101402.06
2022-10-29T01:06:19.769Z,101404.22
2022-10-29T01:11:34.716Z,101407.34
2022-10-29T01:16:56.607Z,101402.59
2022-10-29T01:22:20.230Z,101398.34
2022-10-29T01:27:40.441Z,101386.91
2022-10-29T01:32:54.135Z,101387.88
2022-10-29T01:38:25.957Z,101387.69
2022-10-29T01:43:41.988Z,101382.47
2022-10-29T01:48:47.779Z,101389.81
2022-10-29T01:54:15.050Z,101397.34
2022-10-29T01:59:28.796Z,101344.16
2022-10-29T02:05:04.060Z,101393.16
2022-10-29T02:10:12.694Z,101386.78
2022-10-29T02:15:18.356Z,101378.38
2022-10-29T02:20:21.111Z,101390.94
2022-10-29T02:25:24.349Z,101399.75
2022-10-29T02:30:27.168Z,101387.28
2022-10-29T02:35:29.823Z,101369.38
2022-10-29T02:40:32.487Z,101412.88
2022-10-29T02:45:35.127Z,101410.97
2022-10-29T02:50:37.956Z,101412.75
2022-10-29T02:55:40.653Z,101402.91
2022-10-29T03:00:43.256Z,101416.28
2022-10-29T03:05:48.954Z,101414.84
2022-10-29T03:10:52.114Z,101407.91
2022-10-29T03:15:54.803Z,101401.53
2022-10-29T03:20:57.451Z,101425.69
2022-10-29T03:26:00.202Z,101431.81
2022-10-29T03:31:03.298Z,101420.59
2022-10-29T03:36:08.021Z,101420.00
2022-10-29T03:41:11.232Z,101409.41
2022-10-29T03:46:13.979Z,101411.13
2022-10-29T03:51:16.703Z,101424.00
2022-10-29T03:56:19.427Z,101425.88
2022-10-29T04:01:22.220Z,101414.22
2022-10-29T04:06:24.956Z,101424.50
2022-10-29T04:11:27.649Z,101432.09
2022-10-29T04:16:30.337Z,101436.25
2022-10-29T04:32:18.370Z,101422.00
2022-10-29T04:37:21.042Z,101425.50
2022-10-29T04:42:23.750Z,101426.53
2022-10-29T04:47:26.465Z,101435.44
2022-10-29T04:52:29.120Z,101435.28
2022-10-29T04:57:31.855Z,101424.56
2022-10-29T05:02:36.432Z,101414.66
2022-10-29T05:07:39.151Z,101424.75
2022-10-29T05:12:41.827Z,101422.56
2022-10-29T05:17:44.485Z,101429.72
2022-10-29T05:22:47.274Z,101418.03
2022-10-29T05:27:49.921Z,101424.47
2022-10-29T05:32:52.778Z,101431.63
2022-10-29T05:37:57.537Z,101437.72
2022-10-29T05:43:00.789Z,101418.34
2022-10-29T05:48:04.798Z,101424.25
2022-10-29T05:53:11.518Z,101426.28
2022-10-29T05:58:14.559Z,101436.63
2022-10-29T06:03:22.478Z,101435.38
2022-10-29T06:08:25.277Z,101430.50
2022-10-29T06:13:28.034Z,101439.03
2022-10-29T06:18:30.874Z,101442.44
2022-10-29T06:23:35.085Z,101426.22
2022-10-29T06:28:37.784Z,101424.13
2022-10-29T06:33:40.463Z,101385.66
2022-10-29T06:38:43.107Z,101442.81
2022-10-29T06:43:45.819Z,101428.63
2022-10-29T06:48:48.644Z,101437.91
2022-10-29T06:53:51.424Z,101435.63
2022-10-29T06:58:54.120Z,101440.44
2022-10-29T07:03:56.849Z,101438.81
2022-10-29T07:08:59.543Z,101453.53
2022-10-29T07:14:06.368Z,101439.56
2022-10-29T07:19:09.105Z,101438.31
2022-10-29T07:24:11.857Z,101444.47
2022-10-29T07:29:14.512Z,101453.75
2022-10-29T07:34:17.199Z,101464.09
2022-10-29T07:39:19.966Z,101465.84
2022-10-29T07:44:22.714Z,101451.13
2022-10-29T07:49:25.413Z,101474.38
2022-10-29T07:54:28.016Z,101480.31
2022-10-29T07:59:30.771Z,101479.53
2022-10-29T08:04:33.427Z,101485.16
2022-10-29T08:09:36.099Z,101496.91
2022-10-29T08:14:38.767Z,101481.34
2022-10-29T08:19:41.462Z,101482.94
2022-10-29T08:24:44.116Z,101485.94
2022-10-29T08:29:46.859Z,101492.56
2022-10-29T08:34:49.481Z,101496.00
2022-10-29T08:39:52.686Z,101501.34
2022-10-29T08:45:19.474Z,101504.28
2022-10-29T08:50:29.995Z,101508.84
2022-10-29T08:55:37.237Z,101503.00
2022-10-29T09:00:42.838Z,101508.16
2022-10-29T09:06:14.673Z,101517.28
2022-10-29T09:11:34.823Z,101525.06
2022-10-29T09:16:57.125Z,101541.47
2022-10-29T09:22:11.736Z,101517.84
2022-10-29T09:27:18.781Z,101545.22
2022-10-29T09:32:37.748Z,101550.31
2022-10-29T09:37:46.717Z,101558.72
2022-10-29T09:42:49.511Z,101541.63
2022-10-29T09:48:01.017Z,101572.44
2022-10-29T09:53:03.924Z,101570.94
2022-10-29T09:58:07.356Z,101576.13
2022-10-29T10:03:21.417Z,101586.47
2022-10-29T10:08:24.109Z,101593.84
2022-10-29T10:13:32.004Z,101593.94
2022-10-29T10:23:54.780Z,101593.78
2022-10-29T10:29:13.709Z,101607.34
2022-10-29T10:34:20.706Z,101609.75
2022-10-29T10:39:38.075Z,101625.81
2022-10-29T10:44:48.906Z,101612.31
2022-10-29T10:49:51.628Z,101625.69
2022-10-29T10:55:04.188Z,101637.97
2022-10-29T11:00:22.584Z,101641.97
2022-10-29T11:05:37.450Z,101638.91
2022-10-29T11:10:46.022Z,101650.06
2022-10-29T11:15:52.997Z,101658.50
2022-10-29T11:21:11.828Z,101664.25
2022-10-29T11:26:29.380Z,101669.72
2022-10-29T11:31:32.080Z,101666.50
2022-10-29T11:36:48.664Z,101671.56
2022-10-29T11:42:01.628Z,101683.03
2022-10-29T11:47:24.917Z,101675.09
2022-10-29T11:52:35.576Z,101689.94
2022-10-29T11:58:02.324Z,101691.59
2022-10-29T12:03:20.492Z,101704.84
2022-10-29T12:08:45.053Z,101707.84
2022-10-29T12:13:59.754Z,101715.81
2022-10-29T12:19:04.229Z,101717.34
2022-10-29T12:24:11.499Z,101725.84
2022-10-29T12:29:20.729Z,101702.63
2022-10-29T12:34:31.362Z,101729.13
2022-10-29T12:39:38.198Z,101734.84
2022-10-29T12:45:02.080Z,101742.66
2022-10-29T12:50:37.591Z,101749.72
2022-10-29T12:55:42.666Z,101748.53
2022-10-29T13:00:48.065Z,101756.22
2022-10-29T13:05:50.799Z,101760.06
2022-10-29T13:10:54.753Z,101767.13
2022-10-29T13:15:57.614Z,101765.22
2022-10-29T13:21:00.353Z,101763.31
2022-10-29T13:26:07.690Z,101782.19
2022-10-29T13:31:10.289Z,101780.69
2022-10-29T13:36:21.536Z,101790.00
2022-10-29T13:41:43.222Z,101801.22
2022-10-29T13:46:53.316Z,101794.00
2022-10-29T13:52:01.556Z,101802.22
2022-10-29T13:57:13.090Z,101806.63
2022-10-29T14:02:18.513Z,101809.13
2022-10-29T14:07:34.546Z,101805.75
2022-10-29T14:12:38.669Z,101807.38
2022-10-29T14:17:42.212Z,101818.47
2022-10-29T14:22:45.839Z,101809.34
2022-10-29T14:27:48.618Z,101824.03
2022-10-29T14:32:51.497Z,101833.78
2022-10-29T14:37:57.263Z,101826.91
2022-10-29T14:43:00.505Z,101844.72
2022-10-29T14:48:09.974Z,101836.66
2022-10-29T14:53:31.607Z,101844.75
2022-10-29T14:58:35.677Z,101847.25
2022-10-29T15:03:38.472Z,101846.25
2022-10-29T15:08:42.468Z,101858.63
2022-10-29T15:13:46.645Z,101865.13
2022-10-29T15:18:52.128Z,101865.69
2022-10-29T15:24:08.387Z,101861.53
2022-10-29T15:29:12.300Z,101870.53
2022-10-29T15:34:24.771Z,101875.28
2022-10-29T15:39:42.420Z,101880.16
2022-10-29T15:45:03.285Z,101893.94
2022-10-29T15:50:10.236Z,101895.84
2022-10-29T15:55:28.335Z,101891.13
2022-10-29T16:00:31.962Z,101892.13
2022-10-29T16:05:34.784Z,101880.78
2022-10-29T16:10:37.440Z,101899.81
2022-10-29T16:15:43.252Z,101906.88
2022-10-29T16:20:47.212Z,101901.09
2022-10-29T16:25:49.887Z,101904.66
2022-10-29T16:30:58.776Z,101923.13
2022-10-29T16:36:01.467Z,101914.16
2022-10-29T16:41:04.289Z,101928.50
2022-10-29T16:46:07.431Z,101911.22
2022-10-29T16:51:10.095Z,101932.59
2022-10-29T16:56:15.725Z,101930.44
2022-10-29T17:01:18.833Z,101929.53
2022-10-29T17:06:21.593Z,101939.41
2022-10-29T17:11:24.296Z,101925.38
2022-10-29T17:16:26.998Z,101934.69
2022-10-29T17:21:35.267Z,101938.13
2022-10-29T17:26:37.949Z,101944.44
2022-10-29T17:31:40.669Z,101946.34
2022-10-29T17:36:44.826Z,101949.75
2022-10-29T17:41:48.255Z,101941.19
2022-10-29T17:46:51.016Z,101953.13
2022-10-29T17:51:53.922Z,101949.00
2022-10-29T17:56:56.618Z,101945.91
2022-10-29T18:01:59.358Z,101954.16
2022-10-29T18:07:02.110Z,101929.25
2022-10-29T18:12:04.901Z,101961.41
2022-10-29T18:17:07.712Z,101960.81
2022-10-29T18:22:10.520Z,101955.78
2022-10-29T18:27:13.347Z,101949.91
2022-10-29T18:32:16.217Z,101958.59
2022-10-29T18:37:18.873Z,101955.19
2022-10-29T18:42:21.553Z,101963.47
2022-10-29T18:47:24.264Z,101968.78
2022-10-29T18:52:26.955Z,101957.88
2022-10-29T18:57:29.760Z,101956.81
2022-10-29T19:02:32.468Z,101935.72
2022-10-29T19:07:35.329Z,101964.06
2022-10-29T19:12:37.985Z,101944.28
2022-10-29T19:17:40.646Z,101952.56
2022-10-29T19:22:50.968Z,101967.91
2022-10-29T19:27:53.658Z,101960.81
2022-10-29T19:32:56.585Z,101967.44
2022-10-29T19:37:59.630Z,101965.22
2022-10-29T19:43:02.621Z,101969.69
2022-10-29T19:48:05.747Z,101969.97
2022-10-29T19:53:08.555Z,101970.56
2022-10-29T19:58:11.349Z,101966.69
2022-10-29T20:03:15.247Z,101974.97
2022-10-29T20:08:17.935Z,101978.53
2022-10-29T20:13:20.602Z,101967.63
2022-10-29T20:18:23.234Z,101972.63
2022-10-29T20:23:26.002Z,101970.25
2022-10-29T20:28:29.018Z,101974.97
2022-10-29T20:33:31.694Z,101982.50
2022-10-29T20:38:34.454Z,101982.34
2022-10-29T20:43:37.090Z,101946.06
2022-10-29T20:48:39.780Z,101964.19
2022-10-29T20:53:42.472Z,101968.03
2022-10-29T20:58:45.207Z,101967.88
2022-10-29T21:03:50.469Z,101968.19
2022-10-29T21:08:53.288Z,101948.13
2022-10-29T21:13:56.529Z,101961.94
2022-10-29T21:19:01.001Z,101975.16
2022-10-29T21:24:04.028Z,101975.06
2022-10-29T21:29:06.781Z,101970.09
2022-10-29T21:34:09.530Z,101979.84
2022-10-29T21:39:12.261Z,101965.09
2022-10-29T21:44:14.980Z,101970.25
2022-10-29T21:49:17.678Z,101973.78
2022-10-29T21:54:21.956Z,101967.91
2022-10-29T21:59:27.216Z,101952.69
2022-10-29T22:04:29.840Z,101970.84
2022-10-29T22:09:32.637Z,101974.09
2022-10-29T22:14:35.289Z,101978.09
2022-10-29T22:19:40.182Z,101978.53
2022-10-29T22:24:42.824Z,101977.78
2022-10-29T22:29:45.480Z,101978.53
2022-10-29T22:34:48.083Z,101983.69
2022-10-29T22:39:50.716Z,101980.59
2022-10-29T22:44:53.541Z,101985.16
2022-10-29T22:49:56.978Z,101994.28
2022-10-29T22:54:59.601Z,101989.44
2022-10-29T23:00:02.306Z,101995.91
2022-10-29T23:05:07.135Z,101979.72
2022-10-29T23:10:10.167Z,101985.72
2022-10-29T23:15:12.858Z,101992.06
2022-10-29T23:20:15.570Z,101997.81
2022-10-29T23:25:18.227Z,102000.91
2022-10-29T23:30:20.981Z,102004.19
2022-10-29T23:35:23.707Z,101967.03
2022-10-29T23:40:26.419Z,101999.78
2022-10-29T23:45:29.049Z,102004.81
2022-10-29T23:50:31.895Z,102006.28
2022-10-29T23:55:35.379Z,101999.47
